sensor_id;sensor_type;location;lat;lon;timestamp;P1;durP1;ratioP1;P2;durP2;ratioP2
48327;SDS011;34136;51.022;7.082;2023-05-23T00:01:35;14.05;;;12.57;;
48327;SDS011;34136;51.022;7.082;2023-05-23T00:04:21;16.77;;;13.63;;
48327;SDS011;34136;51.022;7.082;2023-05-23T00:07:07;15.75;;;13.68;;
48327;SDS011;34136;51.022;7.082;2023-05-23T00:09:54;17.27;;;14.35;;
48327;SDS011;34136;51.022;7.082;2023-05-23T00:12:40;17.33;;;15.50;;
48327;SDS011;34136;51.022;7.082;2023-05-23T00:15:26;17.75;;;15.95;;
48327;SDS011;34136;51.022;7.082;2023-05-23T00:18:12;18.48;;;16.67;;
48327;SDS011;34136;51.022;7.082;2023-05-23T00:20:59;18.55;;;16.55;;
48327;SDS011;34136;51.022;7.082;2023-05-23T00:23:45;18.63;;;16.63;;
48327;SDS011;34136;51.022;7.082;2023-05-23T00:26:31;17.52;;;15.73;;
48327;SDS011;34136;51.022;7.082;2023-05-23T00:29:17;18.30;;;15.45;;
48327;SDS011;34136;51.022;7.082;2023-05-23T00:32:04;16.50;;;14.80;;
48327;SDS011;34136;51.022;7.082;2023-05-23T00:34:50;15.25;;;13.77;;
48327;SDS011;34136;51.022;7.082;2023-05-23T00:37:36;15.18;;;13.65;;
48327;SDS011;34136;51.022;7.082;2023-05-23T00:40:22;14.80;;;13.30;;
48327;SDS011;34136;51.022;7.082;2023-05-23T00:43:08;14.05;;;12.57;;
48327;SDS011;34136;51.022;7.082;2023-05-23T00:45:54;14.57;;;13.18;;
48327;SDS011;34136;51.022;7.082;2023-05-23T00:48:41;14.75;;;12.68;;
48327;SDS011;34136;51.022;7.082;2023-05-23T00:51:28;13.65;;;12.25;;
48327;SDS011;34136;51.022;7.082;2023-05-23T00:54:17;13.85;;;12.40;;
48327;SDS011;34136;51.022;7.082;2023-05-23T00:57:07;13.55;;;12.15;;
48327;SDS011;34136;51.022;7.082;2023-05-23T00:59:54;12.82;;;11.52;;
48327;SDS011;34136;51.022;7.082;2023-05-23T01:02:42;12.82;;;11.63;;
48327;SDS011;34136;51.022;7.082;2023-05-23T01:05:30;13.02;;;11.73;;
48327;SDS011;34136;51.022;7.082;2023-05-23T01:08:16;13.88;;;12.18;;
48327;SDS011;34136;51.022;7.082;2023-05-23T01:11:03;12.82;;;11.63;;
48327;SDS011;34136;51.022;7.082;2023-05-23T01:13:58;13.70;;;12.30;;
48327;SDS011;34136;51.022;7.082;2023-05-23T01:16:52;13.63;;;12.30;;
48327;SDS011;34136;51.022;7.082;2023-05-23T01:19:50;13.70;;;12.38;;
48327;SDS011;34136;51.022;7.082;2023-05-23T01:28:32;12.88;;;11.65;;
48327;SDS011;34136;51.022;7.082;2023-05-23T01:31:24;12.60;;;11.30;;
48327;SDS011;34136;51.022;7.082;2023-05-23T01:34:14;13.25;;;11.82;;
48327;SDS011;34136;51.022;7.082;2023-05-23T01:37:06;14.32;;;12.82;;
48327;SDS011;34136;51.022;7.082;2023-05-23T01:39:55;13.63;;;12.23;;
48327;SDS011;34136;51.022;7.082;2023-05-23T01:42:41;10.50;;;9.50;;
48327;SDS011;34136;51.022;7.082;2023-05-23T01:45:27;9.32;;;8.43;;
48327;SDS011;34136;51.022;7.082;2023-05-23T01:48:15;8.25;;;7.45;;
48327;SDS011;34136;51.022;7.082;2023-05-23T01:51:03;10.77;;;7.82;;
48327;SDS011;34136;51.022;7.082;2023-05-23T01:53:49;9.80;;;7.78;;
48327;SDS011;34136;51.022;7.082;2023-05-23T01:56:36;9.45;;;8.55;;
48327;SDS011;34136;51.022;7.082;2023-05-23T01:59:23;11.23;;;10.13;;
48327;SDS011;34136;51.022;7.082;2023-05-23T02:02:10;10.55;;;9.45;;
48327;SDS011;34136;51.022;7.082;2023-05-23T02:04:56;10.02;;;8.93;;
48327;SDS011;34136;51.022;7.082;2023-05-23T02:07:43;10.80;;;9.75;;
48327;SDS011;34136;51.022;7.082;2023-05-23T02:10:29;10.63;;;9.52;;
48327;SDS011;34136;51.022;7.082;2023-05-23T02:13:19;10.52;;;9.50;;
48327;SDS011;34136;51.022;7.082;2023-05-23T02:16:05;10.90;;;9.88;;
48327;SDS011;34136;51.022;7.082;2023-05-23T02:18:52;10.15;;;9.15;;
48327;SDS011;34136;51.022;7.082;2023-05-23T02:21:38;8.48;;;7.75;;
48327;SDS011;34136;51.022;7.082;2023-05-23T02:24:25;8.25;;;7.38;;
48327;SDS011;34136;51.022;7.082;2023-05-23T02:27:12;7.30;;;6.60;;
48327;SDS011;34136;51.022;7.082;2023-05-23T02:29:58;7.60;;;6.90;;
48327;SDS011;34136;51.022;7.082;2023-05-23T02:32:44;6.15;;;5.55;;
48327;SDS011;34136;51.022;7.082;2023-05-23T02:35:31;7.20;;;6.50;;
48327;SDS011;34136;51.022;7.082;2023-05-23T02:38:17;6.57;;;5.55;;
48327;SDS011;34136;51.022;7.082;2023-05-23T02:41:04;7.25;;;6.47;;
48327;SDS011;34136;51.022;7.082;2023-05-23T02:43:50;7.88;;;5.85;;
48327;SDS011;34136;51.022;7.082;2023-05-23T02:46:36;8.30;;;6.53;;
48327;SDS011;34136;51.022;7.082;2023-05-23T02:49:23;7.78;;;6.22;;
48327;SDS011;34136;51.022;7.082;2023-05-23T02:52:10;6.85;;;5.90;;
48327;SDS011;34136;51.022;7.082;2023-05-23T02:54:56;7.22;;;5.95;;
48327;SDS011;34136;51.022;7.082;2023-05-23T02:57:43;8.98;;;5.72;;
48327;SDS011;34136;51.022;7.082;2023-05-23T03:00:30;6.80;;;5.40;;
48327;SDS011;34136;51.022;7.082;2023-05-23T03:03:17;7.35;;;5.30;;
48327;SDS011;34136;51.022;7.082;2023-05-23T03:06:03;9.38;;;4.90;;
48327;SDS011;34136;51.022;7.082;2023-05-23T03:08:50;8.63;;;5.25;;
48327;SDS011;34136;51.022;7.082;2023-05-23T03:11:36;7.03;;;5.32;;
48327;SDS011;34136;51.022;7.082;2023-05-23T03:14:22;7.85;;;6.13;;
48327;SDS011;34136;51.022;7.082;2023-05-23T03:17:12;7.72;;;6.43;;
48327;SDS011;34136;51.022;7.082;2023-05-23T03:19:58;7.07;;;5.75;;
48327;SDS011;34136;51.022;7.082;2023-05-23T03:22:44;6.30;;;5.47;;
48327;SDS011;34136;51.022;7.082;2023-05-23T03:25:30;8.50;;;5.78;;
48327;SDS011;34136;51.022;7.082;2023-05-23T03:28:16;6.43;;;5.25;;
48327;SDS011;34136;51.022;7.082;2023-05-23T03:31:04;7.07;;;5.60;;
48327;SDS011;34136;51.022;7.082;2023-05-23T03:33:50;6.10;;;5.50;;
48327;SDS011;34136;51.022;7.082;2023-05-23T03:36:36;7.72;;;5.68;;
48327;SDS011;34136;51.022;7.082;2023-05-23T03:39:23;9.43;;;6.03;;
48327;SDS011;34136;51.022;7.082;2023-05-23T03:42:09;7.60;;;6.00;;
48327;SDS011;34136;51.022;7.082;2023-05-23T03:44:56;11.32;;;6.50;;
48327;SDS011;34136;51.022;7.082;2023-05-23T03:47:42;9.55;;;6.60;;
48327;SDS011;34136;51.022;7.082;2023-05-23T03:50:28;7.07;;;5.88;;
48327;SDS011;34136;51.022;7.082;2023-05-23T03:53:15;7.65;;;6.10;;
48327;SDS011;34136;51.022;7.082;2023-05-23T03:56:02;7.80;;;6.75;;
48327;SDS011;34136;51.022;7.082;2023-05-23T03:58:49;8.07;;;7.10;;
48327;SDS011;34136;51.022;7.082;2023-05-23T04:01:36;8.88;;;7.40;;
48327;SDS011;34136;51.022;7.082;2023-05-23T04:04:23;10.23;;;8.38;;
48327;SDS011;34136;51.022;7.082;2023-05-23T04:07:09;11.98;;;8.60;;
48327;SDS011;34136;51.022;7.082;2023-05-23T04:09:57;12.45;;;8.48;;
48327;SDS011;34136;51.022;7.082;2023-05-23T04:12:44;10.18;;;8.65;;
48327;SDS011;34136;51.022;7.082;2023-05-23T04:15:34;13.20;;;9.02;;
48327;SDS011;34136;51.022;7.082;2023-05-23T04:18:26;11.20;;;9.05;;
48327;SDS011;34136;51.022;7.082;2023-05-23T04:21:12;10.65;;;9.57;;
48327;SDS011;34136;51.022;7.082;2023-05-23T04:24:08;13.10;;;9.50;;
48327;SDS011;34136;51.022;7.082;2023-05-23T04:26:55;12.65;;;9.80;;
48327;SDS011;34136;51.022;7.082;2023-05-23T04:29:42;11.48;;;9.73;;
48327;SDS011;34136;51.022;7.082;2023-05-23T04:32:29;11.32;;;8.80;;
48327;SDS011;34136;51.022;7.082;2023-05-23T04:35:16;10.93;;;8.85;;
48327;SDS011;34136;51.022;7.082;2023-05-23T04:38:03;12.93;;;8.52;;
48327;SDS011;34136;51.022;7.082;2023-05-23T04:40:50;12.10;;;8.50;;
48327;SDS011;34136;51.022;7.082;2023-05-23T04:43:57;10.35;;;8.68;;
48327;SDS011;34136;51.022;7.082;2023-05-23T04:46:58;10.97;;;9.07;;
48327;SDS011;34136;51.022;7.082;2023-05-23T04:50:07;10.80;;;9.48;;
48327;SDS011;34136;51.022;7.082;2023-05-23T04:52:54;12.82;;;9.05;;
48327;SDS011;34136;51.022;7.082;2023-05-23T04:55:41;16.63;;;10.38;;
48327;SDS011;34136;51.022;7.082;2023-05-23T04:58:32;11.27;;;9.50;;
48327;SDS011;34136;51.022;7.082;2023-05-23T05:01:23;12.13;;;9.48;;
48327;SDS011;34136;51.022;7.082;2023-05-23T05:04:09;11.40;;;9.93;;
48327;SDS011;34136;51.022;7.082;2023-05-23T05:06:56;10.15;;;8.30;;
48327;SDS011;34136;51.022;7.082;2023-05-23T05:09:43;10.40;;;8.60;;
48327;SDS011;34136;51.022;7.082;2023-05-23T05:12:42;12.40;;;9.02;;
48327;SDS011;34136;51.022;7.082;2023-05-23T05:15:39;12.32;;;8.98;;
48327;SDS011;34136;51.022;7.082;2023-05-23T05:18:35;12.40;;;9.07;;
48327;SDS011;34136;51.022;7.082;2023-05-23T05:21:33;12.82;;;9.40;;
48327;SDS011;34136;51.022;7.082;2023-05-23T05:24:20;13.95;;;10.00;;
48327;SDS011;34136;51.022;7.082;2023-05-23T05:27:35;12.10;;;9.30;;
48327;SDS011;34136;51.022;7.082;2023-05-23T05:30:29;13.00;;;10.25;;
48327;SDS011;34136;51.022;7.082;2023-05-23T05:33:23;11.43;;;10.23;;
48327;SDS011;34136;51.022;7.082;2023-05-23T05:36:27;12.40;;;10.05;;
48327;SDS011;34136;51.022;7.082;2023-05-23T05:39:17;13.18;;;11.38;;
48327;SDS011;34136;51.022;7.082;2023-05-23T05:42:27;11.95;;;10.73;;
48327;SDS011;34136;51.022;7.082;2023-05-23T05:45:20;16.58;;;11.10;;
48327;SDS011;34136;51.022;7.082;2023-05-23T05:48:27;17.98;;;10.75;;
48327;SDS011;34136;51.022;7.082;2023-05-23T05:51:23;15.77;;;12.60;;
48327;SDS011;34136;51.022;7.082;2023-05-23T05:54:14;15.15;;;13.65;;
48327;SDS011;34136;51.022;7.082;2023-05-23T05:57:19;17.88;;;13.63;;
48327;SDS011;34136;51.022;7.082;2023-05-23T06:00:12;14.77;;;13.27;;
48327;SDS011;34136;51.022;7.082;2023-05-23T06:03:11;15.07;;;12.85;;
48327;SDS011;34136;51.022;7.082;2023-05-23T06:06:14;14.95;;;13.38;;
48327;SDS011;34136;51.022;7.082;2023-05-23T06:09:03;17.02;;;14.40;;
48327;SDS011;34136;51.022;7.082;2023-05-23T06:11:51;19.50;;;15.57;;
48327;SDS011;34136;51.022;7.082;2023-05-23T06:14:39;19.13;;;15.30;;
48327;SDS011;34136;51.022;7.082;2023-05-23T06:17:36;19.15;;;16.40;;
48327;SDS011;34136;51.022;7.082;2023-05-23T06:20:27;20.77;;;16.10;;
48327;SDS011;34136;51.022;7.082;2023-05-23T06:23:26;18.67;;;15.93;;
48327;SDS011;34136;51.022;7.082;2023-05-23T06:26:14;23.40;;;17.98;;
48327;SDS011;34136;51.022;7.082;2023-05-23T06:29:04;24.05;;;20.40;;
48327;SDS011;34136;51.022;7.082;2023-05-23T06:31:57;24.77;;;22.33;;
48327;SDS011;34136;51.022;7.082;2023-05-23T06:34:44;24.80;;;22.30;;
48327;SDS011;34136;51.022;7.082;2023-05-23T06:40:26;26.00;;;23.40;;
48327;SDS011;34136;51.022;7.082;2023-05-23T06:43:27;24.23;;;21.85;;
48327;SDS011;34136;51.022;7.082;2023-05-23T06:46:38;22.55;;;20.05;;
48327;SDS011;34136;51.022;7.082;2023-05-23T06:49:34;21.42;;;18.85;;
48327;SDS011;34136;51.022;7.082;2023-05-23T06:52:31;20.23;;;18.15;;
48327;SDS011;34136;51.022;7.082;2023-05-23T06:55:37;19.92;;;17.38;;
48327;SDS011;34136;51.022;7.082;2023-05-23T06:58:26;19.80;;;17.65;;
48327;SDS011;34136;51.022;7.082;2023-05-23T07:01:19;21.45;;;18.25;;
48327;SDS011;34136;51.022;7.082;2023-05-23T07:04:07;21.35;;;17.52;;
48327;SDS011;34136;51.022;7.082;2023-05-23T07:06:53;22.48;;;17.08;;
48327;SDS011;34136;51.022;7.082;2023-05-23T07:09:40;19.88;;;17.00;;
48327;SDS011;34136;51.022;7.082;2023-05-23T07:12:31;18.45;;;15.80;;
48327;SDS011;34136;51.022;7.082;2023-05-23T07:15:18;16.50;;;14.52;;
48327;SDS011;34136;51.022;7.082;2023-05-23T07:18:14;15.25;;;13.30;;
48327;SDS011;34136;51.022;7.082;2023-05-23T07:21:01;17.25;;;14.40;;
48327;SDS011;34136;51.022;7.082;2023-05-23T07:23:48;17.23;;;14.27;;
48327;SDS011;34136;51.022;7.082;2023-05-23T07:26:34;15.70;;;14.10;;
48327;SDS011;34136;51.022;7.082;2023-05-23T07:29:20;17.30;;;14.63;;
48327;SDS011;34136;51.022;7.082;2023-05-23T07:32:09;16.90;;;14.80;;
48327;SDS011;34136;51.022;7.082;2023-05-23T07:34:56;16.33;;;14.73;;
48327;SDS011;34136;51.022;7.082;2023-05-23T07:37:43;16.65;;;14.95;;
48327;SDS011;34136;51.022;7.082;2023-05-23T07:40:30;22.05;;;16.27;;
48327;SDS011;34136;51.022;7.082;2023-05-23T07:43:16;19.98;;;17.80;;
48327;SDS011;34136;51.022;7.082;2023-05-23T07:46:03;18.90;;;17.25;;
48327;SDS011;34136;51.022;7.082;2023-05-23T07:48:49;18.02;;;16.10;;
48327;SDS011;34136;51.022;7.082;2023-05-23T07:51:36;18.23;;;16.35;;
48327;SDS011;34136;51.022;7.082;2023-05-23T07:54:22;16.55;;;14.85;;
48327;SDS011;34136;51.022;7.082;2023-05-23T07:57:13;19.00;;;15.27;;
48327;SDS011;34136;51.022;7.082;2023-05-23T07:59:59;25.00;;;15.82;;
48327;SDS011;34136;51.022;7.082;2023-05-23T08:02:47;16.52;;;14.48;;
48327;SDS011;34136;51.022;7.082;2023-05-23T08:05:40;20.50;;;13.90;;
48327;SDS011;34136;51.022;7.082;2023-05-23T08:08:27;17.63;;;13.65;;
48327;SDS011;34136;51.022;7.082;2023-05-23T08:11:13;17.00;;;12.77;;
48327;SDS011;34136;51.022;7.082;2023-05-23T08:14:04;15.98;;;12.63;;
48327;SDS011;34136;51.022;7.082;2023-05-23T08:16:56;17.08;;;13.32;;
48327;SDS011;34136;51.022;7.082;2023-05-23T08:19:45;17.20;;;14.48;;
48327;SDS011;34136;51.022;7.082;2023-05-23T08:22:31;16.90;;;14.68;;
48327;SDS011;34136;51.022;7.082;2023-05-23T08:25:18;19.95;;;14.98;;
48327;SDS011;34136;51.022;7.082;2023-05-23T08:28:04;19.48;;;15.82;;
48327;SDS011;34136;51.022;7.082;2023-05-23T08:31:04;19.05;;;14.45;;
48327;SDS011;34136;51.022;7.082;2023-05-23T08:33:50;19.15;;;13.70;;
48327;SDS011;34136;51.022;7.082;2023-05-23T08:36:36;16.75;;;13.10;;
48327;SDS011;34136;51.022;7.082;2023-05-23T08:39:25;16.10;;;13.43;;
48327;SDS011;34136;51.022;7.082;2023-05-23T08:42:30;17.60;;;14.27;;
48327;SDS011;34136;51.022;7.082;2023-05-23T08:45:16;20.15;;;18.15;;
48327;SDS011;34136;51.022;7.082;2023-05-23T08:48:03;20.73;;;18.17;;
48327;SDS011;34136;51.022;7.082;2023-05-23T08:50:54;20.48;;;18.38;;
48327;SDS011;34136;51.022;7.082;2023-05-23T08:53:43;23.75;;;19.02;;
48327;SDS011;34136;51.022;7.082;2023-05-23T08:56:31;19.02;;;17.02;;
48327;SDS011;34136;51.022;7.082;2023-05-23T08:59:18;19.33;;;17.02;;
48327;SDS011;34136;51.022;7.082;2023-05-23T09:02:07;19.08;;;16.08;;
48327;SDS011;34136;51.022;7.082;2023-05-23T09:04:55;20.13;;;16.70;;
48327;SDS011;34136;51.022;7.082;2023-05-23T09:07:44;23.25;;;20.67;;
48327;SDS011;34136;51.022;7.082;2023-05-23T09:10:31;24.05;;;21.05;;
48327;SDS011;34136;51.022;7.082;2023-05-23T09:13:18;22.60;;;20.40;;
48327;SDS011;34136;51.022;7.082;2023-05-23T09:16:08;20.20;;;18.20;;
48327;SDS011;34136;51.022;7.082;2023-05-23T09:19:08;20.02;;;15.38;;
48327;SDS011;34136;51.022;7.082;2023-05-23T09:21:56;28.15;;;23.00;;
48327;SDS011;34136;51.022;7.082;2023-05-23T09:24:50;27.27;;;24.58;;
48327;SDS011;34136;51.022;7.082;2023-05-23T09:27:37;32.67;;;29.17;;
48327;SDS011;34136;51.022;7.082;2023-05-23T09:30:24;31.60;;;28.27;;
48327;SDS011;34136;51.022;7.082;2023-05-23T09:33:13;29.60;;;26.60;;
48327;SDS011;34136;51.022;7.082;2023-05-23T09:35:59;36.40;;;29.17;;
48327;SDS011;34136;51.022;7.082;2023-05-23T09:38:46;33.42;;;29.40;;
48327;SDS011;34136;51.022;7.082;2023-05-23T09:41:33;38.83;;;28.45;;
48327;SDS011;34136;51.022;7.082;2023-05-23T09:44:24;36.40;;;30.98;;
48327;SDS011;34136;51.022;7.082;2023-05-23T09:47:10;39.72;;;30.50;;
48327;SDS011;34136;51.022;7.082;2023-05-23T09:49:57;38.55;;;32.53;;
48327;SDS011;34136;51.022;7.082;2023-05-23T09:52:43;35.65;;;30.65;;
48327;SDS011;34136;51.022;7.082;2023-05-23T09:55:30;40.67;;;34.50;;
48327;SDS011;34136;51.022;7.082;2023-05-23T09:58:16;43.67;;;35.25;;
48327;SDS011;34136;51.022;7.082;2023-05-23T10:01:05;41.88;;;34.75;;
48327;SDS011;34136;51.022;7.082;2023-05-23T10:03:54;50.15;;;44.58;;
48327;SDS011;34136;51.022;7.082;2023-05-23T10:06:43;61.67;;;52.20;;
48327;SDS011;34136;51.022;7.082;2023-05-23T10:09:41;63.83;;;54.13;;
48327;SDS011;34136;51.022;7.082;2023-05-23T10:15:58;54.88;;;49.13;;
48327;SDS011;34136;51.022;7.082;2023-05-23T10:18:51;55.17;;;49.22;;
48327;SDS011;34136;51.022;7.082;2023-05-23T10:21:43;54.63;;;47.58;;
48327;SDS011;34136;51.022;7.082;2023-05-23T10:24:35;47.72;;;42.42;;
48327;SDS011;34136;51.022;7.082;2023-05-23T10:27:22;50.40;;;41.53;;
48327;SDS011;34136;51.022;7.082;2023-05-23T10:30:08;41.38;;;36.83;;
48327;SDS011;34136;51.022;7.082;2023-05-23T10:32:55;44.55;;;35.80;;
48327;SDS011;34136;51.022;7.082;2023-05-23T10:41:58;41.20;;;35.13;;
48327;SDS011;34136;51.022;7.082;2023-05-23T10:44:48;39.47;;;35.28;;
48327;SDS011;34136;51.022;7.082;2023-05-23T10:47:34;38.08;;;33.78;;
48327;SDS011;34136;51.022;7.082;2023-05-23T10:50:31;30.75;;;27.50;;
48327;SDS011;34136;51.022;7.082;2023-05-23T10:53:19;22.98;;;20.58;;
48327;SDS011;34136;51.022;7.082;2023-05-23T10:56:08;23.13;;;20.23;;
48327;SDS011;34136;51.022;7.082;2023-05-23T10:58:56;22.58;;;20.25;;
48327;SDS011;34136;51.022;7.082;2023-05-23T11:01:42;25.70;;;23.08;;
48327;SDS011;34136;51.022;7.082;2023-05-23T11:04:28;30.90;;;27.65;;
48327;SDS011;34136;51.022;7.082;2023-05-23T11:07:28;32.67;;;29.38;;
48327;SDS011;34136;51.022;7.082;2023-05-23T11:10:16;28.45;;;24.25;;
48327;SDS011;34136;51.022;7.082;2023-05-23T11:13:06;31.83;;;24.33;;
48327;SDS011;34136;51.022;7.082;2023-05-23T11:15:53;30.63;;;27.13;;
48327;SDS011;34136;51.022;7.082;2023-05-23T11:18:40;33.95;;;28.95;;
48327;SDS011;34136;51.022;7.082;2023-05-23T11:21:26;29.73;;;26.42;;
48327;SDS011;34136;51.022;7.082;2023-05-23T11:24:14;29.33;;;26.08;;
48327;SDS011;34136;51.022;7.082;2023-05-23T11:27:01;35.78;;;27.60;;
48327;SDS011;34136;51.022;7.082;2023-05-23T11:29:57;38.22;;;34.08;;
48327;SDS011;34136;51.022;7.082;2023-05-23T11:32:52;41.40;;;36.90;;
48327;SDS011;34136;51.022;7.082;2023-05-23T11:35:39;46.85;;;41.88;;
48327;SDS011;34136;51.022;7.082;2023-05-23T11:38:30;39.78;;;35.97;;
48327;SDS011;34136;51.022;7.082;2023-05-23T11:41:17;35.83;;;32.20;;
48327;SDS011;34136;51.022;7.082;2023-05-23T11:44:10;31.75;;;27.40;;
48327;SDS011;34136;51.022;7.082;2023-05-23T11:46:57;26.67;;;23.85;;
48327;SDS011;34136;51.022;7.082;2023-05-23T11:49:47;24.17;;;20.80;;
48327;SDS011;34136;51.022;7.082;2023-05-23T11:52:33;24.90;;;20.23;;
48327;SDS011;34136;51.022;7.082;2023-05-23T11:55:20;22.23;;;18.20;;
48327;SDS011;34136;51.022;7.082;2023-05-23T11:58:07;21.95;;;16.20;;
48327;SDS011;34136;51.022;7.082;2023-05-23T12:01:02;18.60;;;13.20;;
48327;SDS011;34136;51.022;7.082;2023-05-23T12:03:49;17.20;;;10.90;;
48327;SDS011;34136;51.022;7.082;2023-05-23T12:06:36;14.70;;;11.05;;
48327;SDS011;34136;51.022;7.082;2023-05-23T12:09:24;16.70;;;11.48;;
48327;SDS011;34136;51.022;7.082;2023-05-23T12:12:11;15.20;;;11.55;;
48327;SDS011;34136;51.022;7.082;2023-05-23T12:14:57;19.70;;;13.55;;
48327;SDS011;34136;51.022;7.082;2023-05-23T12:17:44;14.63;;;13.10;;
48327;SDS011;34136;51.022;7.082;2023-05-23T12:20:30;17.10;;;13.38;;
48327;SDS011;34136;51.022;7.082;2023-05-23T12:23:17;15.70;;;13.38;;
48327;SDS011;34136;51.022;7.082;2023-05-23T12:26:05;15.02;;;13.23;;
48327;SDS011;34136;51.022;7.082;2023-05-23T12:28:52;22.98;;;14.05;;
48327;SDS011;34136;51.022;7.082;2023-05-23T12:31:38;18.50;;;14.20;;
48327;SDS011;34136;51.022;7.082;2023-05-23T12:34:25;18.25;;;14.75;;
48327;SDS011;34136;51.022;7.082;2023-05-23T12:37:11;18.80;;;16.90;;
48327;SDS011;34136;51.022;7.082;2023-05-23T12:40:07;17.48;;;15.68;;
48327;SDS011;34136;51.022;7.082;2023-05-23T12:42:58;19.48;;;16.35;;
48327;SDS011;34136;51.022;7.082;2023-05-23T12:45:44;24.25;;;18.95;;
48327;SDS011;34136;51.022;7.082;2023-05-23T12:48:31;19.60;;;17.50;;
48327;SDS011;34136;51.022;7.082;2023-05-23T12:51:17;21.08;;;15.00;;
48327;SDS011;34136;51.022;7.082;2023-05-23T12:54:04;15.68;;;11.88;;
48327;SDS011;34136;51.022;7.082;2023-05-23T12:56:51;16.27;;;11.45;;
48327;SDS011;34136;51.022;7.082;2023-05-23T12:59:37;12.77;;;9.00;;
48327;SDS011;34136;51.022;7.082;2023-05-23T13:02:24;15.20;;;9.18;;
48327;SDS011;34136;51.022;7.082;2023-05-23T13:05:11;13.55;;;7.50;;
48327;SDS011;34136;51.022;7.082;2023-05-23T13:07:57;11.68;;;6.50;;
48327;SDS011;34136;51.022;7.082;2023-05-23T13:10:44;11.25;;;7.25;;
48327;SDS011;34136;51.022;7.082;2023-05-23T13:13:31;10.40;;;7.25;;
48327;SDS011;34136;51.022;7.082;2023-05-23T13:16:17;15.73;;;9.93;;
48327;SDS011;34136;51.022;7.082;2023-05-23T13:19:03;12.60;;;9.90;;
48327;SDS011;34136;51.022;7.082;2023-05-23T13:21:50;13.23;;;10.10;;
48327;SDS011;34136;51.022;7.082;2023-05-23T13:24:36;17.40;;;10.98;;
48327;SDS011;34136;51.022;7.082;2023-05-23T13:27:23;16.08;;;10.73;;
48327;SDS011;34136;51.022;7.082;2023-05-23T13:30:09;19.92;;;11.45;;
48327;SDS011;34136;51.022;7.082;2023-05-23T13:32:56;15.65;;;10.85;;
48327;SDS011;34136;51.022;7.082;2023-05-23T13:35:42;15.52;;;12.10;;
48327;SDS011;34136;51.022;7.082;2023-05-23T13:38:28;16.00;;;13.82;;
48327;SDS011;34136;51.022;7.082;2023-05-23T13:41:15;16.70;;;11.68;;
48327;SDS011;34136;51.022;7.082;2023-05-23T13:44:01;13.45;;;10.63;;
48327;SDS011;34136;51.022;7.082;2023-05-23T13:46:48;14.00;;;10.73;;
48327;SDS011;34136;51.022;7.082;2023-05-23T13:49:34;13.40;;;10.50;;
48327;SDS011;34136;51.022;7.082;2023-05-23T13:52:20;15.55;;;10.25;;
48327;SDS011;34136;51.022;7.082;2023-05-23T13:55:07;13.23;;;9.40;;
48327;SDS011;34136;51.022;7.082;2023-05-23T13:57:54;18.23;;;8.73;;
48327;SDS011;34136;51.022;7.082;2023-05-23T14:00:40;14.00;;;8.10;;
48327;SDS011;34136;51.022;7.082;2023-05-23T14:03:26;16.98;;;9.68;;
48327;SDS011;34136;51.022;7.082;2023-05-23T14:06:12;13.27;;;9.10;;
48327;SDS011;34136;51.022;7.082;2023-05-23T14:08:59;14.75;;;7.82;;
48327;SDS011;34136;51.022;7.082;2023-05-23T14:11:45;15.00;;;6.22;;
48327;SDS011;34136;51.022;7.082;2023-05-23T14:14:31;12.13;;;5.30;;
48327;SDS011;34136;51.022;7.082;2023-05-23T14:17:17;15.13;;;5.45;;
48327;SDS011;34136;51.022;7.082;2023-05-23T14:20:04;10.25;;;4.43;;
48327;SDS011;34136;51.022;7.082;2023-05-23T14:22:50;8.98;;;4.65;;
48327;SDS011;34136;51.022;7.082;2023-05-23T14:25:37;11.32;;;5.07;;
48327;SDS011;34136;51.022;7.082;2023-05-23T14:28:24;14.90;;;5.85;;
48327;SDS011;34136;51.022;7.082;2023-05-23T14:31:10;12.32;;;6.15;;
48327;SDS011;34136;51.022;7.082;2023-05-23T14:33:56;11.65;;;5.30;;
48327;SDS011;34136;51.022;7.082;2023-05-23T14:36:42;15.02;;;4.80;;
48327;SDS011;34136;51.022;7.082;2023-05-23T14:39:28;10.43;;;4.85;;
48327;SDS011;34136;51.022;7.082;2023-05-23T14:42:14;11.57;;;4.35;;
48327;SDS011;34136;51.022;7.082;2023-05-23T14:45:00;11.50;;;4.72;;
48327;SDS011;34136;51.022;7.082;2023-05-23T14:47:46;14.50;;;4.07;;
48327;SDS011;34136;51.022;7.082;2023-05-23T14:50:32;12.88;;;4.78;;
48327;SDS011;34136;51.022;7.082;2023-05-23T14:53:19;13.02;;;4.45;;
48327;SDS011;34136;51.022;7.082;2023-05-23T14:56:05;17.92;;;5.32;;
48327;SDS011;34136;51.022;7.082;2023-05-23T14:58:51;15.02;;;4.45;;
48327;SDS011;34136;51.022;7.082;2023-05-23T15:01:37;16.30;;;4.85;;
48327;SDS011;34136;51.022;7.082;2023-05-23T15:04:23;10.45;;;3.88;;
48327;SDS011;34136;51.022;7.082;2023-05-23T15:07:10;15.85;;;4.50;;
48327;SDS011;34136;51.022;7.082;2023-05-23T15:09:56;12.00;;;4.30;;
48327;SDS011;34136;51.022;7.082;2023-05-23T15:12:43;13.88;;;4.30;;
48327;SDS011;34136;51.022;7.082;2023-05-23T15:15:29;14.27;;;4.28;;
48327;SDS011;34136;51.022;7.082;2023-05-23T15:18:15;10.82;;;4.05;;
48327;SDS011;34136;51.022;7.082;2023-05-23T15:21:01;15.38;;;4.60;;
48327;SDS011;34136;51.022;7.082;2023-05-23T15:23:47;13.95;;;4.22;;
48327;SDS011;34136;51.022;7.082;2023-05-23T15:26:18;13.90;;;4.53;;
48327;SDS011;34136;51.022;7.082;2023-05-23T15:29:04;16.05;;;4.88;;
48327;SDS011;34136;51.022;7.082;2023-05-23T15:31:51;9.13;;;3.88;;
48327;SDS011;34136;51.022;7.082;2023-05-23T15:34:37;17.35;;;5.18;;
48327;SDS011;34136;51.022;7.082;2023-05-23T15:37:23;12.02;;;4.20;;
48327;SDS011;34136;51.022;7.082;2023-05-23T15:40:10;17.70;;;5.10;;
48327;SDS011;34136;51.022;7.082;2023-05-23T15:42:57;13.60;;;3.83;;
48327;SDS011;34136;51.022;7.082;2023-05-23T15:45:43;14.30;;;4.25;;
48327;SDS011;34136;51.022;7.082;2023-05-23T15:48:34;16.10;;;4.55;;
48327;SDS011;34136;51.022;7.082;2023-05-23T15:51:20;16.17;;;5.53;;
48327;SDS011;34136;51.022;7.082;2023-05-23T15:54:06;13.95;;;5.03;;
48327;SDS011;34136;51.022;7.082;2023-05-23T15:56:52;15.05;;;5.18;;
48327;SDS011;34136;51.022;7.082;2023-05-23T15:59:38;13.43;;;5.32;;
48327;SDS011;34136;51.022;7.082;2023-05-23T16:02:25;18.92;;;5.30;;
48327;SDS011;34136;51.022;7.082;2023-05-23T16:05:11;15.73;;;5.32;;
48327;SDS011;34136;51.022;7.082;2023-05-23T16:07:57;17.17;;;4.80;;
48327;SDS011;34136;51.022;7.082;2023-05-23T16:10:47;15.27;;;5.40;;
48327;SDS011;34136;51.022;7.082;2023-05-23T16:13:33;12.25;;;5.05;;
48327;SDS011;34136;51.022;7.082;2023-05-23T16:16:19;13.13;;;5.03;;
48327;SDS011;34136;51.022;7.082;2023-05-23T16:19:05;13.85;;;4.72;;
48327;SDS011;34136;51.022;7.082;2023-05-23T16:21:52;14.73;;;4.70;;
48327;SDS011;34136;51.022;7.082;2023-05-23T16:24:38;10.77;;;4.35;;
48327;SDS011;34136;51.022;7.082;2023-05-23T16:27:24;15.80;;;4.10;;
48327;SDS011;34136;51.022;7.082;2023-05-23T16:37:38;12.25;;;3.63;;
48327;SDS011;34136;51.022;7.082;2023-05-23T16:40:25;15.07;;;4.22;;
48327;SDS011;34136;51.022;7.082;2023-05-23T16:43:11;16.00;;;3.83;;
48327;SDS011;34136;51.022;7.082;2023-05-23T16:45:59;11.63;;;4.00;;
48327;SDS011;34136;51.022;7.082;2023-05-23T16:48:46;9.75;;;3.92;;
48327;SDS011;34136;51.022;7.082;2023-05-23T16:51:34;17.45;;;4.70;;
48327;SDS011;34136;51.022;7.082;2023-05-23T16:54:20;12.38;;;4.10;;
48327;SDS011;34136;51.022;7.082;2023-05-23T16:57:06;14.35;;;4.40;;
48327;SDS011;34136;51.022;7.082;2023-05-23T16:59:52;14.90;;;4.03;;